createdAt,value
2023-01-23T00:01:35.409Z,101814.69
2023-01-23T00:04:02.968Z,101815.54
2023-01-23T00:06:30.970Z,101815.91
2023-01-23T00:08:58.829Z,101816.66
2023-01-23T00:11:27.605Z,101821.58
2023-01-23T00:13:55.538Z,101821.35
2023-01-23T00:16:25.145Z,101821.81
2023-01-23T00:18:53.751Z,101823.02
2023-01-23T00:21:23.450Z,101827.13
2023-01-23T00:23:53.954Z,101830.35
2023-01-23T00:26:23.484Z,101838.23
2023-01-23T00:28:51.682Z,101837.54
2023-01-23T00:31:23.198Z,101845.30
2023-01-23T00:33:54.567Z,101839.63
2023-01-23T00:36:23.040Z,101836.02
2023-01-23T00:38:50.199Z,101831.08
2023-01-23T00:41:17.358Z,101832.80
2023-01-23T00:43:45.109Z,101832.25
2023-01-23T00:46:12.161Z,101830.52
2023-01-23T00:48:40.039Z,101827.97
2023-01-23T00:51:08.052Z,101832.56
2023-01-23T00:53:35.126Z,101834.82
2023-01-23T00:56:02.428Z,101831.16
2023-01-23T00:58:29.744Z,101839.20
2023-01-23T01:00:56.988Z,101838.00
2023-01-23T01:03:25.292Z,101845.05
2023-01-23T01:05:52.517Z,101847.27
2023-01-23T01:08:20.310Z,101852.91
2023-01-23T01:10:47.428Z,101847.02
2023-01-23T01:13:17.060Z,101848.30
2023-01-23T01:15:44.410Z,101853.61
2023-01-23T01:18:11.421Z,101853.60
2023-01-23T01:20:41.554Z,101855.66
2023-01-23T01:23:08.564Z,101856.02
2023-01-23T01:25:35.859Z,101855.00
2023-01-23T01:28:03.326Z,101856.26
2023-01-23T01:30:30.580Z,101858.88
2023-01-23T01:32:58.642Z,101861.13
2023-01-23T01:35:26.348Z,101860.77
2023-01-23T01:37:53.660Z,101864.53
2023-01-23T01:40:23.399Z,101870.23
2023-01-23T01:42:55.762Z,101872.48
2023-01-23T01:45:57.616Z,101872.78
2023-01-23T01:48:28.136Z,101874.30
2023-01-23T01:50:55.684Z,101873.45
2023-01-23T01:53:25.099Z,101876.54
2023-01-23T01:55:52.867Z,101879.30
2023-01-23T01:58:21.247Z,101883.59
2023-01-23T02:00:48.818Z,101883.79
2023-01-23T02:03:17.044Z,101883.53
2023-01-23T02:05:46.514Z,101887.27
2023-01-23T02:08:19.108Z,101887.40
2023-01-23T02:10:46.991Z,101888.12
2023-01-23T02:13:32.708Z,101886.63
2023-01-23T02:16:03.988Z,101890.63
2023-01-23T02:18:32.867Z,101894.70
2023-01-23T02:21:05.021Z,101900.17
2023-01-23T02:23:44.153Z,101905.63
2023-01-23T02:26:17.954Z,101902.46
2023-01-23T02:28:47.609Z,101897.16
2023-01-23T02:31:19.135Z,101895.58
2023-01-23T02:33:55.269Z,101891.64
2023-01-23T02:36:26.540Z,101890.45
2023-01-23T02:39:03.711Z,101894.98
2023-01-23T02:41:33.961Z,101896.45
2023-01-23T02:44:03.988Z,101899.89
2023-01-23T02:46:31.211Z,101899.90
2023-01-23T02:48:58.596Z,101900.55
2023-01-23T02:51:26.136Z,101903.14
2023-01-23T02:53:53.574Z,101904.91
2023-01-23T02:56:21.235Z,101903.45
2023-01-23T02:59:06.968Z,101900.16
2023-01-23T03:01:35.915Z,101897.23
2023-01-23T03:04:04.612Z,101899.86
2023-01-23T03:06:36.358Z,101900.71
2023-01-23T03:09:05.673Z,101902.73
2023-01-23T03:11:32.642Z,101902.38
2023-01-23T03:14:00.782Z,101906.86
2023-01-23T03:16:28.949Z,101909.21
2023-01-23T03:18:57.652Z,101910.40
2023-01-23T03:21:24.798Z,101911.86
2023-01-23T03:23:52.866Z,101910.81
2023-01-23T03:26:19.878Z,101914.40
2023-01-23T03:29:04.983Z,101913.39
2023-01-23T03:31:32.249Z,101913.91
2023-01-23T03:33:59.487Z,101909.48
2023-01-23T03:36:27.366Z,101911.84
2023-01-23T03:39:12.063Z,101912.05
2023-01-23T03:41:42.130Z,101910.65
2023-01-23T03:44:10.085Z,101913.03
2023-01-23T03:46:37.356Z,101919.23
2023-01-23T03:49:04.504Z,101923.15
2023-01-23T03:51:33.050Z,101929.15
2023-01-23T03:54:13.244Z,101927.15
2023-01-23T03:56:40.965Z,101931.67
2023-01-23T03:59:08.880Z,101936.52
2023-01-23T04:01:36.610Z,101938.96
2023-01-23T04:04:04.724Z,101938.10
2023-01-23T04:06:32.804Z,101941.40
2023-01-23T04:09:01.538Z,101937.64
2023-01-23T04:11:29.144Z,101936.39
2023-01-23T04:13:56.807Z,101936.67
2023-01-23T04:16:24.551Z,101939.00
2023-01-23T04:18:51.916Z,101938.13
2023-01-23T04:21:19.171Z,101938.98
2023-01-23T04:23:46.665Z,101938.79
2023-01-23T04:26:14.399Z,101940.86
2023-01-23T04:28:42.260Z,101946.13
2023-01-23T04:31:10.390Z,101945.73
2023-01-23T04:33:37.590Z,101951.59
2023-01-23T04:36:06.916Z,101953.98
2023-01-23T04:38:35.774Z,101959.86
2023-01-23T04:41:21.834Z,101965.71
2023-01-23T04:43:50.794Z,101959.54
2023-01-23T04:46:18.153Z,101961.73
2023-01-23T04:48:59.705Z,101962.88
2023-01-23T04:51:27.080Z,101957.41
2023-01-23T04:53:54.316Z,101961.05
2023-01-23T04:56:22.690Z,101965.87
2023-01-23T04:58:49.998Z,101969.64
2023-01-23T05:01:23.408Z,101968.29
2023-01-23T05:03:52.810Z,101967.02
2023-01-23T05:06:20.619Z,101962.50
2023-01-23T05:08:47.964Z,101969.34
2023-01-23T05:11:21.771Z,101970.76
2023-01-23T05:13:49.348Z,101971.48
2023-01-23T05:16:16.904Z,101975.09
2023-01-23T05:19:02.886Z,101976.06
2023-01-23T05:21:31.681Z,101973.13
2023-01-23T05:23:59.127Z,101968.54
2023-01-23T05:26:26.589Z,101972.16
2023-01-23T05:28:54.849Z,101975.71
2023-01-23T05:31:22.794Z,101975.48
2023-01-23T05:34:10.467Z,101972.60
2023-01-23T05:36:38.640Z,101977.77
2023-01-23T05:39:05.789Z,101986.59
2023-01-23T05:41:33.140Z,101988.81
2023-01-23T05:44:25.482Z,101987.09
2023-01-23T05:46:57.054Z,101992.59
2023-01-23T05:49:24.214Z,101996.73
2023-01-23T05:51:51.666Z,101998.83
2023-01-23T05:54:18.696Z,102000.38
2023-01-23T05:56:46.148Z,102011.20
2023-01-23T05:59:31.632Z,102016.96
2023-01-23T06:02:15.629Z,102017.62
2023-01-23T06:05:07.184Z,102020.16
2023-01-23T06:07:45.790Z,102019.77
2023-01-23T06:10:14.396Z,102022.11
2023-01-23T06:12:41.363Z,102027.38
2023-01-23T06:15:11.061Z,102033.65
2023-01-23T06:17:38.955Z,102038.59
2023-01-23T06:20:07.133Z,102043.02
2023-01-23T06:22:34.767Z,102048.12
2023-01-23T06:25:06.659Z,102050.82
2023-01-23T06:27:33.866Z,102053.33
2023-01-23T06:30:03.853Z,102053.30
2023-01-23T06:32:31.454Z,102058.29
2023-01-23T06:34:59.564Z,102065.02
2023-01-23T06:37:28.717Z,102073.90
2023-01-23T06:39:56.587Z,102080.74
2023-01-23T06:42:24.089Z,102089.32
2023-01-23T06:44:53.093Z,102096.21
2023-01-23T06:47:21.014Z,102097.14
2023-01-23T06:49:54.934Z,102099.06
2023-01-23T06:52:24.215Z,102103.04
2023-01-23T06:54:51.365Z,102100.69
2023-01-23T06:57:18.839Z,102104.80
2023-01-23T06:59:47.223Z,102103.96
2023-01-23T07:02:15.171Z,102104.27
2023-01-23T07:04:45.497Z,102105.15
2023-01-23T07:07:12.954Z,102106.48
2023-01-23T07:09:40.519Z,102109.39
2023-01-23T07:12:23.362Z,102105.02
2023-01-23T07:14:50.483Z,102110.30
2023-01-23T07:17:22.114Z,102112.61
2023-01-23T07:19:51.178Z,102113.70
2023-01-23T07:22:20.761Z,102116.86
2023-01-23T07:24:48.099Z,102119.95
2023-01-23T07:27:15.448Z,102120.30
2023-01-23T07:29:42.584Z,102120.31
2023-01-23T07:32:11.175Z,102122.42
2023-01-23T07:34:38.690Z,102123.70
2023-01-23T07:37:05.813Z,102126.13
2023-01-23T07:39:32.954Z,102122.73
2023-01-23T07:42:02.253Z,102121.72
2023-01-23T07:44:29.676Z,102124.98
2023-01-23T07:46:57.595Z,102122.23
2023-01-23T07:49:24.712Z,102119.82
2023-01-23T07:51:51.767Z,102124.10
2023-01-23T07:54:18.768Z,102122.41
2023-01-23T07:56:45.784Z,102125.05
2023-01-23T07:59:14.232Z,102126.76
2023-01-23T08:01:41.246Z,102127.45
2023-01-23T08:04:08.696Z,102134.21
2023-01-23T08:06:36.657Z,102138.17
2023-01-23T08:09:04.497Z,102138.91
2023-01-23T08:11:34.292Z,102145.80
2023-01-23T08:14:01.644Z,102147.67
2023-01-23T08:16:29.227Z,102147.02
2023-01-23T08:18:56.367Z,102148.95
2023-01-23T08:21:23.591Z,102146.79
2023-01-23T08:23:50.657Z,102146.52
2023-01-23T08:26:19.299Z,102147.98
2023-01-23T08:28:47.024Z,102147.41
2023-01-23T08:31:15.057Z,102153.30
2023-01-23T08:33:42.643Z,102163.30
2023-01-23T08:36:13.330Z,102166.63
2023-01-23T08:38:40.852Z,102165.06
2023-01-23T08:41:10.163Z,102169.40
2023-01-23T08:43:37.712Z,102166.39
2023-01-23T08:46:05.490Z,102173.36
2023-01-23T08:48:34.319Z,102178.06
2023-01-23T08:51:06.056Z,102187.14
2023-01-23T08:53:34.597Z,102189.59
2023-01-23T08:56:06.253Z,102189.92
2023-01-23T08:58:33.746Z,102194.90
2023-01-23T09:01:01.294Z,102192.85
2023-01-23T09:03:28.755Z,102190.40
2023-01-23T09:05:56.032Z,102188.48
2023-01-23T09:08:23.250Z,102186.35
2023-01-23T09:10:50.612Z,102186.25
2023-01-23T09:13:19.819Z,102182.88
2023-01-23T09:15:47.330Z,102180.34
2023-01-23T09:18:14.503Z,102175.88
2023-01-23T09:20:42.142Z,102181.05
2023-01-23T09:23:09.806Z,102179.17
2023-01-23T09:25:37.923Z,102175.98
2023-01-23T09:28:05.019Z,102173.64
2023-01-23T09:30:32.245Z,102175.69
2023-01-23T09:32:59.607Z,102169.85
2023-01-23T09:35:27.028Z,102167.81
2023-01-23T09:38:05.123Z,102161.13
2023-01-23T09:40:35.868Z,102159.95
2023-01-23T09:43:12.395Z,102158.75
2023-01-23T09:45:42.010Z,102159.04
2023-01-23T09:48:22.519Z,102159.80
2023-01-23T09:50:57.638Z,102158.39
2023-01-23T09:53:32.265Z,102158.63
2023-01-23T09:56:06.087Z,102151.99
2023-01-23T09:58:38.866Z,102153.41
2023-01-23T10:01:06.359Z,102150.39
2023-01-23T10:03:34.984Z,102157.23
2023-01-23T10:06:22.881Z,102160.88
2023-01-23T10:09:06.094Z,102162.64
2023-01-23T10:11:43.172Z,102160.69
2023-01-23T10:14:30.768Z,102165.33
2023-01-23T10:17:08.976Z,102161.06
2023-01-23T10:19:58.841Z,102162.80
2023-01-23T10:22:37.360Z,102163.84
2023-01-23T10:25:11.609Z,102163.54
2023-01-23T10:27:44.180Z,102162.58
2023-01-23T10:30:24.808Z,102159.20
2023-01-23T10:32:57.832Z,102160.48
2023-01-23T10:35:31.081Z,102162.27
2023-01-23T10:38:06.363Z,102161.68
2023-01-23T10:40:50.907Z,102161.89
2023-01-23T10:43:20.308Z,102163.41
2023-01-23T10:45:48.678Z,102163.83
2023-01-23T10:48:42.708Z,102163.90
2023-01-23T10:51:43.599Z,102159.57
2023-01-23T10:54:31.679Z,102157.12
2023-01-23T10:57:02.578Z,102152.20
2023-01-23T10:59:34.253Z,102150.89
2023-01-23T11:02:17.059Z,102155.95
2023-01-23T11:04:46.525Z,102152.52
2023-01-23T11:07:17.092Z,102154.89
2023-01-23T11:09:54.354Z,102157.25
2023-01-23T11:12:23.479Z,102154.27
2023-01-23T11:14:51.559Z,102158.00
2023-01-23T11:17:22.592Z,102155.43
2023-01-23T11:19:53.269Z,102156.48
2023-01-23T11:22:38.470Z,102158.69
2023-01-23T11:25:29.092Z,102158.48
2023-01-23T11:28:01.658Z,102156.30
2023-01-23T11:30:42.758Z,102156.36
2023-01-23T11:33:20.257Z,102153.34
2023-01-23T11:36:03.834Z,102152.05
2023-01-23T11:38:44.857Z,102149.81
2023-01-23T11:41:16.101Z,102141.09
2023-01-23T11:43:43.871Z,102140.63
2023-01-23T11:46:32.770Z,102137.70
2023-01-23T11:49:18.812Z,102133.51
2023-01-23T11:51:58.397Z,102129.52
2023-01-23T11:54:46.638Z,102127.23
2023-01-23T11:57:19.818Z,102126.28
2023-01-23T11:59:57.591Z,102122.78
2023-01-23T12:02:54.600Z,102122.02
2023-01-23T12:05:47.504Z,102117.64
2023-01-23T12:08:25.944Z,102119.55
2023-01-23T12:11:11.088Z,102121.40
2023-01-23T12:13:50.268Z,102125.87
2023-01-23T12:16:24.876Z,102131.49
2023-01-23T12:19:05.456Z,102134.64
2023-01-23T12:21:39.020Z,102139.01
2023-01-23T12:24:18.751Z,102143.02
2023-01-23T12:27:01.706Z,102146.30
2023-01-23T12:29:49.924Z,102144.07
2023-01-23T12:32:37.235Z,102143.39
2023-01-23T12:35:11.146Z,102143.76
2023-01-23T12:37:52.846Z,102143.35
2023-01-23T12:40:25.823Z,102145.54
2023-01-23T12:42:58.971Z,102145.35
2023-01-23T12:45:28.934Z,102146.06
2023-01-23T12:48:05.304Z,102142.12
2023-01-23T12:50:41.870Z,102132.81
2023-01-23T12:53:13.740Z,102137.96
2023-01-23T12:55:44.670Z,102139.36
2023-01-23T12:58:17.558Z,102143.86
2023-01-23T13:01:00.405Z,102144.89
2023-01-23T13:03:46.439Z,102146.72
2023-01-23T13:06:29.795Z,102159.23
2023-01-23T13:09:16.556Z,102163.63
2023-01-23T13:11:54.691Z,102166.82
2023-01-23T13:14:29.173Z,102167.52
2023-01-23T13:16:59.003Z,102170.59
2023-01-23T13:19:45.764Z,102168.62
2023-01-23T13:22:29.097Z,102171.61
2023-01-23T13:25:14.209Z,102173.45
2023-01-23T13:27:47.424Z,102174.98
2023-01-23T13:30:45.185Z,102178.56
2023-01-23T13:33:51.802Z,102177.20
2023-01-23T13:36:26.393Z,102181.02
2023-01-23T13:39:21.436Z,102178.97
2023-01-23T13:41:50.400Z,102177.42
2023-01-23T13:44:35.794Z,102179.13
2023-01-23T14:22:46.407Z,102197.02
2023-01-23T14:25:19.960Z,102203.04
2023-01-23T14:27:53.840Z,102202.86
2023-01-23T14:30:27.151Z,102204.04
2023-01-23T14:32:55.370Z,102210.19
2023-01-23T14:35:27.666Z,102209.46
2023-01-23T14:37:57.172Z,102206.21
2023-01-23T14:40:31.763Z,102204.87
2023-01-23T14:43:07.941Z,102202.79
2023-01-23T14:45:37.085Z,102202.12
2023-01-23T14:48:07.818Z,102205.52
2023-01-23T14:50:35.878Z,102207.33
2023-01-23T14:53:05.252Z,102204.17
2023-01-23T14:55:36.156Z,102205.56
2023-01-23T14:58:05.188Z,102209.79
2023-01-23T15:00:32.743Z,102209.52
2023-01-23T15:03:00.580Z,102213.81
2023-01-23T15:05:29.290Z,102215.04
2023-01-23T15:07:58.839Z,102214.48
2023-01-23T15:10:29.251Z,102212.10
2023-01-23T15:12:59.857Z,102211.08
2023-01-23T15:15:28.303Z,102210.90
2023-01-23T15:17:56.898Z,102211.02
2023-01-23T15:20:38.485Z,102214.43
2023-01-23T15:23:28.555Z,102218.74
2023-01-23T15:26:12.500Z,102217.52
2023-01-23T15:28:49.518Z,102216.83
2023-01-23T15:31:30.709Z,102219.45
2023-01-23T15:33:59.293Z,102218.96
2023-01-23T15:36:29.920Z,102218.77
2023-01-23T15:38:58.737Z,102218.58
2023-01-23T15:41:45.036Z,102217.70
2023-01-23T15:44:18.550Z,102218.04
2023-01-23T15:46:45.734Z,102219.91
2023-01-23T15:49:24.289Z,102222.89
2023-01-23T15:51:52.811Z,102221.30
2023-01-23T15:54:25.601Z,102225.70
2023-01-23T15:57:05.432Z,102226.55
2023-01-23T15:59:36.244Z,102225.84
2023-01-23T16:02:03.812Z,102230.67
2023-01-23T16:04:30.959Z,102228.94
2023-01-23T16:06:58.711Z,102232.58
2023-01-23T16:09:32.834Z,102230.73
2023-01-23T16:12:00.689Z,102234.08
2023-01-23T16:14:28.155Z,102232.55
2023-01-23T16:16:58.265Z,102232.17
2023-01-23T16:19:31.973Z,102231.21
2023-01-23T16:22:05.053Z,102233.81
2023-01-23T16:24:38.379Z,102235.89
2023-01-23T16:27:07.140Z,102233.35
2023-01-23T16:29:35.614Z,102232.49
2023-01-23T16:32:04.761Z,102233.54
2023-01-23T16:34:32.121Z,102230.56
2023-01-23T16:37:02.888Z,102230.39
2023-01-23T16:39:32.711Z,102233.49
2023-01-23T16:42:01.214Z,102234.17
2023-01-23T16:44:30.040Z,102234.52
2023-01-23T16:46:57.654Z,102234.73
2023-01-23T16:49:25.212Z,102237.13
2023-01-23T16:52:01.411Z,102240.15
2023-01-23T16:54:29.174Z,102242.81
2023-01-23T16:56:58.248Z,102248.59
2023-01-23T16:59:37.172Z,102248.90
2023-01-23T17:02:13.545Z,102248.73
2023-01-23T17:04:39.828Z,102249.13
2023-01-23T17:07:10.799Z,102251.00
2023-01-23T17:09:37.843Z,102254.10
2023-01-23T17:12:05.861Z,102257.86
2023-01-23T17:14:35.009Z,102256.33
2023-01-23T17:17:09.037Z,102256.23
2023-01-23T17:19:41.568Z,102261.36
2023-01-23T17:22:17.248Z,102262.92
2023-01-23T17:24:44.517Z,102266.69
2023-01-23T17:27:11.655Z,102268.22
2023-01-23T17:29:38.879Z,102266.42
2023-01-23T17:32:07.943Z,102263.30
2023-01-23T17:34:49.453Z,102260.02
2023-01-23T17:37:22.614Z,102257.98
2023-01-23T17:39:49.930Z,102259.39
2023-01-23T17:42:17.909Z,102256.34
2023-01-23T17:44:45.050Z,102258.77
2023-01-23T17:47:14.164Z,102258.98
2023-01-23T17:49:42.760Z,102257.63
2023-01-23T17:52:12.682Z,102258.04
2023-01-23T17:54:40.143Z,102259.11
2023-01-23T17:57:07.457Z,102264.65
2023-01-23T17:59:34.753Z,102264.50
2023-01-23T18:02:01.851Z,102263.27
2023-01-23T18:04:28.912Z,102261.48
2023-01-23T18:06:56.181Z,102263.55
2023-01-23T18:09:23.618Z,102262.69
2023-01-23T18:11:54.654Z,102262.38
2023-01-23T18:14:47.515Z,102262.70
2023-01-23T18:17:23.778Z,102258.77
2023-01-23T18:19:54.046Z,102256.95
2023-01-23T18:22:22.410Z,102259.35
2023-01-23T18:24:51.320Z,102262.04
2023-01-23T18:27:24.515Z,102262.32
2023-01-23T18:30:04.731Z,102262.45
2023-01-23T18:32:49.966Z,102260.79
2023-01-23T18:35:36.214Z,102262.33
2023-01-23T18:38:16.243Z,102264.11
2023-01-23T18:40:49.569Z,102263.23
2023-01-23T18:43:32.624Z,102264.27
2023-01-23T18:46:00.869Z,102264.61
2023-01-23T18:48:29.157Z,102264.88
2023-01-23T18:51:08.707Z,102263.05
2023-01-23T18:53:47.969Z,102261.08
2023-01-23T18:56:23.977Z,102261.99
2023-01-23T18:59:11.699Z,102260.66
2023-01-23T19:01:52.399Z,102261.32
2023-01-23T19:04:22.259Z,102261.67
2023-01-23T19:06:51.052Z,102258.43
2023-01-23T19:09:22.290Z,102257.58
2023-01-23T19:12:09.475Z,102257.61
2023-01-23T19:14:54.692Z,102262.13
2023-01-23T19:17:33.003Z,102264.36
2023-01-23T19:20:06.118Z,102269.38
2023-01-23T19:22:47.580Z,102269.53
2023-01-23T19:25:19.716Z,102272.08
2023-01-23T19:27:52.468Z,102275.15
2023-01-23T19:30:23.422Z,102275.84
2023-01-23T19:32:51.642Z,102274.81
2023-01-23T19:35:19.303Z,102273.23
2023-01-23T19:37:46.450Z,102269.59
2023-01-23T19:40:16.551Z,102272.02
2023-01-23T19:42:54.351Z,102271.02
2023-01-23T19:45:29.098Z,102275.96
2023-01-23T19:47:56.377Z,102274.77
2023-01-23T19:50:24.056Z,102276.17
2023-01-23T19:52:53.863Z,102279.61
2023-01-23T19:55:29.191Z,102278.59
2023-01-23T19:57:57.890Z,102277.75
2023-01-23T20:00:26.341Z,102278.60
2023-01-23T20:02:53.895Z,102284.45
2023-01-23T20:05:21.939Z,102285.48
2023-01-23T20:07:50.766Z,102285.66
2023-01-23T20:10:18.944Z,102284.98
2023-01-23T20:12:51.820Z,102291.20
2023-01-23T20:15:20.893Z,102291.72
2023-01-23T20:17:48.368Z,102292.44
2023-01-23T20:20:16.550Z,102289.16
2023-01-23T20:22:44.612Z,102286.53
2023-01-23T20:25:15.216Z,102285.42
2023-01-23T20:27:43.226Z,102278.12
2023-01-23T20:30:15.991Z,102285.71
2023-01-23T20:32:43.156Z,102285.30
2023-01-23T20:35:11.532Z,102290.05
2023-01-23T20:37:38.990Z,102291.40
2023-01-23T20:40:08.896Z,102284.11
2023-01-23T20:42:36.457Z,102285.54
2023-01-23T20:45:04.018Z,102285.91
2023-01-23T20:47:31.128Z,102284.89
2023-01-23T20:49:58.921Z,102285.15
2023-01-23T20:52:43.709Z,102290.43
2023-01-23T20:55:11.852Z,102293.46
2023-01-23T20:57:57.151Z,102293.10
2023-01-23T21:00:24.651Z,102295.83
2023-01-23T21:02:51.900Z,102291.34
2023-01-23T21:05:19.761Z,102295.14
2023-01-23T21:07:47.958Z,102290.45
2023-01-23T21:10:15.367Z,102292.85
2023-01-23T21:12:42.316Z,102293.73
2023-01-23T21:15:12.161Z,102291.98
2023-01-23T21:17:39.900Z,102297.63
2023-01-23T21:20:08.408Z,102294.18
2023-01-23T21:22:35.375Z,102291.84
2023-01-23T21:25:02.366Z,102290.16
2023-01-23T21:27:29.436Z,102292.02
2023-01-23T21:29:56.577Z,102292.91
2023-01-23T21:32:23.743Z,102294.32
2023-01-23T21:34:51.689Z,102297.94
2023-01-23T21:37:19.224Z,102299.61
2023-01-23T21:39:46.520Z,102300.30
2023-01-23T21:42:13.462Z,102303.43
2023-01-23T21:44:40.536Z,102302.96
2023-01-23T21:47:07.992Z,102299.89
2023-01-23T21:49:35.526Z,102300.59
2023-01-23T21:52:02.701Z,102298.02
2023-01-23T21:54:29.668Z,102301.83
2023-01-23T21:56:56.740Z,102297.18
2023-01-23T21:59:26.370Z,102293.02
2023-01-23T22:01:53.725Z,102290.08
2023-01-23T22:04:23.263Z,102291.09
2023-01-23T22:06:54.091Z,102289.71
2023-01-23T22:09:24.686Z,102295.70
2023-01-23T22:11:52.475Z,102295.76
2023-01-23T22:14:20.540Z,102299.11
2023-01-23T22:16:50.015Z,102293.38
2023-01-23T22:19:19.678Z,102297.30
2023-01-23T22:21:47.074Z,102301.41
2023-01-23T22:24:15.061Z,102304.36
2023-01-23T22:26:42.280Z,102306.47
2023-01-23T22:29:09.773Z,102303.77
2023-01-23T22:31:36.970Z,102300.67
2023-01-23T22:34:04.391Z,102303.28
2023-01-23T22:36:31.631Z,102305.03
2023-01-23T22:38:59.131Z,102305.06
2023-01-23T22:41:26.646Z,102304.36
2023-01-23T22:43:59.321Z,102304.39
2023-01-23T22:46:26.817Z,102306.80
2023-01-23T22:48:54.082Z,102309.92
2023-01-23T22:51:24.743Z,102309.21
2023-01-23T22:53:52.630Z,102313.13
2023-01-23T22:56:19.685Z,102311.38
2023-01-23T22:58:50.114Z,102315.27
2023-01-23T23:01:18.006Z,102317.66
2023-01-23T23:03:46.343Z,102317.48
2023-01-23T23:06:16.125Z,102317.70
2023-01-23T23:08:46.380Z,102314.29
2023-01-23T23:11:16.938Z,102318.12
2023-01-23T23:13:44.784Z,102318.19
2023-01-23T23:16:15.441Z,102320.30
2023-01-23T23:18:42.780Z,102320.47
2023-01-23T23:21:12.717Z,102319.77
2023-01-23T23:23:39.954Z,102320.46
2023-01-23T23:26:08.341Z,102323.68
2023-01-23T23:28:36.420Z,102322.14
2023-01-23T23:31:03.704Z,102318.05
2023-01-23T23:33:31.068Z,102316.33
2023-01-23T23:35:58.204Z,102316.36
2023-01-23T23:38:25.501Z,102312.63
2023-01-23T23:40:59.268Z,102312.52
2023-01-23T23:43:27.208Z,102312.55
2023-01-23T23:45:58.494Z,102312.05
2023-01-23T23:48:25.953Z,102308.10
2023-01-23T23:50:53.673Z,102308.61
2023-01-23T23:53:21.714Z,102308.98
2023-01-23T23:55:49.593Z,102309.52
2023-01-23T23:58:17.369Z,102314.17
